METAR Data
IDs: Format: Raw Decoded Include TAF

Data at: 2339 UTC 25 Oct 2021

KELP 252251Z 19006KT 10SM CLR 31/02 A2994 RMK AO2 SLP072 T03060022
KELP 252151Z 20010KT 10SM CLR 31/03 A2995 RMK AO2 SLP078 T03060028
KELP 252051Z VRB05KT 10SM CLR 30/04 A2998 RMK AO2 SLP084 T03000039 56028
KELP 251951Z 16006KT 10SM CLR 28/04 A3000 RMK AO2 SLP098 T02830039
KELP 251851Z VRB04KT 10SM FEW250 27/04 A3004 RMK AO2 SLP109 T02720044
KELP 251751Z 19006KT 10SM FEW250 25/04 A3007 RMK AO2 SLP124 T02500039 10250 20117 58009
KELP 251651Z 18007KT 10SM FEW250 23/03 A3008 RMK AO2 SLP128 T02280028
KELP 251551Z 18008KT 10SM FEW250 21/02 A3010 RMK AO2 SLP134 T02060022
KELP 251451Z 15004KT 10SM FEW250 18/02 A3010 RMK AO2 SLP137 T01780022 51009
KELP 251351Z 16003KT 10SM FEW250 13/01 A3008 RMK AO2 SLP136 T01280011
KELP 251251Z 18003KT 10SM FEW250 12/02 A3008 RMK AO2 SLP134 T01220017
KELP 251151Z 00000KT 10SM CLR 14/02 A3006 RMK AO2 SLP124 T01390017 10172 20111 53004
KELP 251051Z 00000KT 10SM FEW250 14/02 A3005 RMK AO2 SLP119 T01440017
KELP 250951Z 00000KT 10SM FEW250 13/02 A3006 RMK AO2 SLP121 T01330017
KELP 250851Z 00000KT 10SM CLR 16/03 A3005 RMK AO2 SLP115 T01610028 56001
KELP 250751Z 00000KT 10SM CLR 15/02 A3005 RMK AO2 SLP119 T01500022
KELP 250651Z 18003KT 10SM FEW250 16/02 A3005 RMK AO2 SLP118 T01610022 402720139
KELP 250551Z 09004KT 10SM FEW250 16/03 A3006 RMK AO2 SLP121 T01610028 10261 20161 51012
KELP 250451Z 18004KT 10SM FEW250 18/03 A3005 RMK AO2 SLP118 T01830028
KELP 250351Z 12003KT 10SM SCT250 21/03 A3004 RMK AO2 SLP115 T02060028
KELP 250251Z 25005KT 10SM FEW250 21/03 A3002 RMK AO2 SLP109 T02110028 51015
KELP 250151Z 22004KT 10SM FEW250 22/03 A3001 RMK AO2 SLP108 T02220028
KELP 250051Z 23006KT 10SM FEW250 24/03 A2998 RMK AO2 SLP097 T02390028
KELP 242351Z 23011KT 10SM FEW250 26/03 A2997 RMK AO2 SLP088 T02610028 10272 20239 58001
KELP 242251Z 27009G16KT 10SM FEW250 27/02 A2998 RMK AO2 SLP089 T02670022
KELP 242151Z VRB05KT 10SM FEW250 27/02 A2998 RMK AO2 SLP088 T02670022
KELP 242051Z VRB05G19KT 10SM FEW250 27/02 A2997 RMK AO2 SLP086 T02670017 56019
KELP 241951Z 27008KT 10SM FEW250 26/03 A2998 RMK AO2 SLP089 T02610028
KELP 241851Z 27005KT 10SM FEW250 25/02 A3001 RMK AO2 SLP099 T02500022
KELP 241751Z 26006G15KT 10SM FEW250 24/03 A3004 RMK AO2 SLP105 T02390028 10244 20139 50005
KELP 241651Z VRB06KT 10SM FEW200 23/01 A3004 RMK AO2 SLP109 T02280011
KELP 241551Z 21007KT 10SM FEW200 21/00 A3004 RMK AO2 SLP109 T02060000
KELP 241451Z 19004KT 10SM FEW180 18/M01 A3002 RMK AO2 SLP105 T01781011 53021
KELP 241351Z 15006KT 10SM FEW180 14/M01 A2999 RMK AO2 SLP101 T01441011
KELP 241251Z 14005KT 10SM FEW240 14/M02 A2996 RMK AO2 SLP089 T01441017
KELP 241151Z 16006KT 10SM CLR 16/M02 A2995 RMK AO2 SLP080 T01611017 10228 20156 53005